UPS1727 VGHS-ZUCK
Flight info
| Callsign | UPS1727 |
|---|---|
| Flight time | 2h 13m |
| Altitude | 25000 |
| Route | NIKLI1C NIKLI W1 IKIPI/N0482F350 DCT VENUM DCT MALNO DCT KI/K0889S1070 DCT CEH W162 WLY DCT OLVAT DCT LEVTO DCT QJG |
| Aircraft | MD11/H-SDE1E2E3FGHIJ2J3J4J5M1RWXY/LB1D1 |
Departure
| Time | 2026-04-23 07:31 |
|---|---|
| Airport | Hazrat Shahjalal International Airport (VGHS) |
Arrival
| Time | 2026-04-23 09:44 |
|---|---|
| Airport | Chongqing Jiangbei International Airport (ZUCK) |
| Time | Latitude | Longitude | Altitude | Speed | Heading |
|---|---|---|---|---|---|
| 2026-04-23 06:50 | 23.85089 | 90.39982 | 34 ft | 0 kts | 231° |
| 2026-04-23 07:18 | 23.85093 | 90.39986 | 35 ft | 2 kts | 231° |
| 2026-04-23 07:18 | 23.85097 | 90.39993 | 36 ft | 2 kts | 206° |
| 2026-04-23 07:18 | 23.85099 | 90.39994 | 36 ft | 0 kts | 195° |
| 2026-04-23 07:18 | 23.85104 | 90.39995 | 36 ft | 2 kts | 223° |
| 2026-04-23 07:19 | 23.85114 | 90.40008 | 34 ft | 2 kts | 231° |
| 2026-04-23 07:19 | 23.85123 | 90.40023 | 32 ft | 2 kts | 261° |
| 2026-04-23 07:19 | 23.85123 | 90.40040 | 32 ft | 2 kts | 294° |
| 2026-04-23 07:19 | 23.85115 | 90.40056 | 33 ft | 2 kts | 317° |
| 2026-04-23 07:20 | 23.85114 | 90.40057 | 33 ft | 0 kts | 322° |
| 2026-04-23 07:24 | 23.85119 | 90.40053 | 37 ft | 4 kts | 322° |
| 2026-04-23 07:25 | 23.85169 | 90.40010 | 37 ft | 10 kts | 317° |
| 2026-04-23 07:25 | 23.85177 | 90.39982 | 37 ft | 5 kts | 271° |
| 2026-04-23 07:25 | 23.85151 | 90.39931 | 37 ft | 11 kts | 233° |
| 2026-04-23 07:25 | 23.85115 | 90.39867 | 37 ft | 5 kts | 258° |
| 2026-04-23 07:26 | 23.85129 | 90.39821 | 34 ft | 9 kts | 304° |
| 2026-04-23 07:26 | 23.85195 | 90.39761 | 36 ft | 16 kts | 324° |
| 2026-04-23 07:26 | 23.85304 | 90.39676 | 36 ft | 21 kts | 324° |
| 2026-04-23 07:26 | 23.85419 | 90.39586 | 36 ft | 19 kts | 324° |
| 2026-04-23 07:27 | 23.85522 | 90.39504 | 36 ft | 18 kts | 324° |
| 2026-04-23 07:27 | 23.85619 | 90.39427 | 36 ft | 17 kts | 324° |
| 2026-04-23 07:27 | 23.85708 | 90.39357 | 34 ft | 14 kts | 324° |
| 2026-04-23 07:27 | 23.85768 | 90.39299 | 36 ft | 5 kts | 299° |
| 2026-04-23 07:28 | 23.85768 | 90.39270 | 36 ft | 5 kts | 263° |
| 2026-04-23 07:28 | 23.85747 | 90.39231 | 35 ft | 8 kts | 235° |
| 2026-04-23 07:28 | 23.85707 | 90.39168 | 36 ft | 12 kts | 235° |
| 2026-04-23 07:28 | 23.85649 | 90.39081 | 36 ft | 16 kts | 233° |
| 2026-04-23 07:29 | 23.85579 | 90.38977 | 34 ft | 16 kts | 233° |
| 2026-04-23 07:29 | 23.85517 | 90.38888 | 35 ft | 10 kts | 232° |
| 2026-04-23 07:29 | 23.85493 | 90.38873 | 35 ft | 4 kts | 194° |
| 2026-04-23 07:29 | 23.85476 | 90.38874 | 33 ft | 1 kts | 162° |
| 2026-04-23 07:30 | 23.85463 | 90.38884 | 35 ft | 5 kts | 145° |
| 2026-04-23 07:30 | 23.85346 | 90.38976 | 35 ft | 53 kts | 144° |
| 2026-04-23 07:30 | 23.84812 | 90.39400 | 38 ft | 134 kts | 144° |
| 2026-04-23 07:30 | 23.83878 | 90.40132 | 93 ft | 188 kts | 143° |
| 2026-04-23 07:31 | 23.82781 | 90.41026 | 733 ft | 195 kts | 144° |
| 2026-04-23 07:31 | 23.81758 | 90.41875 | 1897 ft | 185 kts | 141° |
| 2026-04-23 07:31 | 23.80767 | 90.42764 | 2787 ft | 186 kts | 141° |
| 2026-04-23 07:31 | 23.79741 | 90.43692 | 3407 ft | 205 kts | 142° |
| 2026-04-23 07:32 | 23.78539 | 90.44778 | 3576 ft | 242 kts | 142° |
| 2026-04-23 07:32 | 23.77169 | 90.46017 | 3823 ft | 265 kts | 141° |
| 2026-04-23 07:32 | 23.75736 | 90.47317 | 4627 ft | 270 kts | 142° |
| 2026-04-23 07:32 | 23.74293 | 90.48627 | 5476 ft | 277 kts | 142° |
| 2026-04-23 07:33 | 23.72787 | 90.49992 | 6329 ft | 285 kts | 142° |
| 2026-04-23 07:33 | 23.71243 | 90.51392 | 7133 ft | 292 kts | 142° |
| 2026-04-23 07:33 | 23.69662 | 90.52822 | 7961 ft | 298 kts | 142° |
| 2026-04-23 07:33 | 23.68044 | 90.54281 | 8766 ft | 305 kts | 142° |
| 2026-04-23 07:34 | 23.66393 | 90.55767 | 9604 ft | 311 kts | 142° |
| 2026-04-23 07:34 | 23.64701 | 90.57288 | 10266 ft | 324 kts | 141° |
| 2026-04-23 07:34 | 23.62882 | 90.58922 | 10389 ft | 354 kts | 141° |
| 2026-04-23 07:34 | 23.60904 | 90.60698 | 10534 ft | 382 kts | 141° |
| 2026-04-23 07:35 | 23.58831 | 90.62563 | 11254 ft | 388 kts | 141° |
| 2026-04-23 07:35 | 23.56744 | 90.64440 | 12112 ft | 391 kts | 141° |
| 2026-04-23 07:35 | 23.54666 | 90.66309 | 12938 ft | 394 kts | 140° |
| 2026-04-23 07:35 | 23.52543 | 90.68217 | 13735 ft | 397 kts | 140° |
| 2026-04-23 07:36 | 23.50404 | 90.70137 | 14429 ft | 400 kts | 140° |
| 2026-04-23 07:36 | 23.48246 | 90.72073 | 15119 ft | 403 kts | 140° |
| 2026-04-23 07:36 | 23.46075 | 90.74020 | 15783 ft | 406 kts | 140° |
| 2026-04-23 07:36 | 23.43884 | 90.75985 | 16441 ft | 409 kts | 140° |
| 2026-04-23 07:37 | 23.41676 | 90.77965 | 17049 ft | 413 kts | 139° |
| 2026-04-23 07:37 | 23.39447 | 90.79963 | 17661 ft | 417 kts | 139° |
| 2026-04-23 07:37 | 23.37202 | 90.81975 | 18245 ft | 420 kts | 139° |
| 2026-04-23 07:37 | 23.34937 | 90.84004 | 18739 ft | 424 kts | 139° |
| 2026-04-23 07:38 | 23.32652 | 90.86050 | 19207 ft | 428 kts | 140° |
| 2026-04-23 07:38 | 23.30347 | 90.88115 | 19686 ft | 431 kts | 140° |
| 2026-04-23 07:38 | 23.28017 | 90.90202 | 20149 ft | 435 kts | 140° |
| 2026-04-23 07:38 | 23.25670 | 90.92304 | 20611 ft | 439 kts | 140° |
| 2026-04-23 07:39 | 23.23306 | 90.94421 | 21078 ft | 443 kts | 140° |
| 2026-04-23 07:39 | 23.20917 | 90.96559 | 21548 ft | 446 kts | 140° |
| 2026-04-23 07:39 | 23.18511 | 90.98715 | 22042 ft | 450 kts | 140° |
| 2026-04-23 07:39 | 23.16097 | 91.00902 | 22521 ft | 454 kts | 140° |
| 2026-04-23 07:40 | 23.13670 | 91.03121 | 22990 ft | 458 kts | 139° |
| 2026-04-23 07:40 | 23.11496 | 91.05662 | 23444 ft | 461 kts | 125° |
| 2026-04-23 07:40 | 23.09921 | 91.08704 | 23796 ft | 466 kts | 113° |
| 2026-04-23 07:40 | 23.08858 | 91.12025 | 23900 ft | 478 kts | 107° |
| 2026-04-23 07:41 | 23.07901 | 91.15511 | 24229 ft | 484 kts | 108° |
| 2026-04-23 07:41 | 23.06840 | 91.18988 | 24645 ft | 487 kts | 110° |
| 2026-04-23 07:41 | 23.05619 | 91.22442 | 25067 ft | 491 kts | 113° |
| 2026-04-23 07:41 | 23.04269 | 91.25865 | 25482 ft | 495 kts | 115° |
| 2026-04-23 07:42 | 23.02833 | 91.29277 | 25922 ft | 499 kts | 116° |
| 2026-04-23 07:42 | 23.01349 | 91.32699 | 26338 ft | 503 kts | 117° |
| 2026-04-23 07:42 | 22.99840 | 91.36145 | 26755 ft | 507 kts | 117° |
| 2026-04-23 07:42 | 22.98319 | 91.39616 | 27155 ft | 512 kts | 117° |
| 2026-04-23 07:43 | 22.96790 | 91.43120 | 27566 ft | 516 kts | 117° |
| 2026-04-23 07:43 | 22.95254 | 91.46650 | 27976 ft | 520 kts | 117° |
| 2026-04-23 07:43 | 22.93709 | 91.50208 | 28375 ft | 524 kts | 117° |
| 2026-04-23 07:43 | 22.92152 | 91.53798 | 28754 ft | 528 kts | 117° |
| 2026-04-23 07:44 | 22.90581 | 91.57419 | 29102 ft | 533 kts | 117° |
| 2026-04-23 07:44 | 22.88996 | 91.61068 | 29481 ft | 537 kts | 117° |
| 2026-04-23 07:44 | 22.87400 | 91.64741 | 29839 ft | 540 kts | 117° |
| 2026-04-23 07:44 | 22.85791 | 91.68439 | 30129 ft | 544 kts | 118° |
| 2026-04-23 07:45 | 22.84170 | 91.72160 | 30406 ft | 547 kts | 118° |
| 2026-04-23 07:45 | 22.82540 | 91.75900 | 30672 ft | 550 kts | 118° |
| 2026-04-23 07:45 | 22.80903 | 91.79654 | 30992 ft | 552 kts | 118° |
| 2026-04-23 07:45 | 22.79260 | 91.83418 | 31326 ft | 552 kts | 118° |
| 2026-04-23 07:46 | 22.77611 | 91.87177 | 31656 ft | 553 kts | 118° |
| 2026-04-23 07:46 | 22.75957 | 91.90939 | 31996 ft | 553 kts | 119° |
| 2026-04-23 07:46 | 22.74302 | 91.94707 | 32320 ft | 553 kts | 119° |
| 2026-04-23 07:46 | 22.72652 | 91.98465 | 32654 ft | 553 kts | 119° |
| 2026-04-23 07:47 | 22.71000 | 92.02231 | 33002 ft | 553 kts | 119° |
| 2026-04-23 07:47 | 22.69347 | 92.06000 | 33309 ft | 553 kts | 120° |
| 2026-04-23 07:47 | 22.67711 | 92.09729 | 33637 ft | 553 kts | 119° |
| 2026-04-23 07:47 | 22.66618 | 92.12219 | 33854 ft | 552 kts | 120° |
| 2026-04-23 07:48 | 22.64968 | 92.15974 | 34089 ft | 553 kts | 120° |
| 2026-04-23 07:48 | 22.63316 | 92.19731 | 34333 ft | 553 kts | 120° |
| 2026-04-23 07:48 | 22.61105 | 92.24754 | 34666 ft | 552 kts | 120° |
| 2026-04-23 07:48 | 22.60010 | 92.27239 | 34825 ft | 552 kts | 120° |
| 2026-04-23 07:49 | 22.58355 | 92.30992 | 34981 ft | 553 kts | 120° |
| 2026-04-23 07:49 | 22.55034 | 92.38516 | 35026 ft | 554 kts | 120° |
| 2026-04-23 07:50 | 22.51707 | 92.46042 | 35038 ft | 554 kts | 120° |
| 2026-04-23 07:50 | 22.48380 | 92.53559 | 35037 ft | 555 kts | 120° |
| 2026-04-23 07:51 | 22.45046 | 92.61077 | 35050 ft | 554 kts | 120° |
| 2026-04-23 07:51 | 22.41705 | 92.68585 | 35036 ft | 552 kts | 120° |
| 2026-04-23 07:52 | 22.39086 | 92.76407 | 35047 ft | 559 kts | 104° |
| 2026-04-23 07:52 | 22.38538 | 92.84795 | 35058 ft | 562 kts | 85° |
| 2026-04-23 07:53 | 22.40067 | 92.93049 | 35077 ft | 561 kts | 72° |
| 2026-04-23 07:53 | 22.42074 | 93.01207 | 35073 ft | 562 kts | 76° |
| 2026-04-23 07:54 | 22.43477 | 93.09530 | 35106 ft | 565 kts | 81° |
| 2026-04-23 07:54 | 22.44561 | 93.17959 | 35100 ft | 567 kts | 82° |
| 2026-04-23 07:55 | 22.45606 | 93.26346 | 35103 ft | 567 kts | 81° |
| 2026-04-23 07:55 | 22.46692 | 93.34782 | 35095 ft | 566 kts | 81° |
| 2026-04-23 07:56 | 22.47793 | 93.43222 | 35105 ft | 567 kts | 81° |
| 2026-04-23 07:56 | 22.48891 | 93.51660 | 35065 ft | 566 kts | 81° |
| 2026-04-23 07:57 | 22.49980 | 93.60086 | 35062 ft | 566 kts | 81° |
| 2026-04-23 07:57 | 22.51063 | 93.68525 | 35069 ft | 565 kts | 81° |
| 2026-04-23 07:58 | 22.52124 | 93.76945 | 35069 ft | 565 kts | 82° |
| 2026-04-23 07:58 | 22.53189 | 93.85383 | 35023 ft | 566 kts | 82° |
| 2026-04-23 07:59 | 22.54259 | 93.93812 | 35027 ft | 566 kts | 81° |
| 2026-04-23 07:59 | 22.55324 | 94.02238 | 34995 ft | 566 kts | 81° |
| 2026-04-23 08:00 | 22.56387 | 94.10671 | 34992 ft | 566 kts | 81° |
| 2026-04-23 08:00 | 22.57437 | 94.19049 | 34975 ft | 566 kts | 82° |
| 2026-04-23 08:01 | 22.58489 | 94.27484 | 34978 ft | 565 kts | 81° |
| 2026-04-23 08:01 | 22.59536 | 94.35906 | 34968 ft | 565 kts | 81° |
| 2026-04-23 08:02 | 22.60579 | 94.44333 | 34964 ft | 565 kts | 81° |
| 2026-04-23 08:02 | 22.61618 | 94.52772 | 34971 ft | 565 kts | 81° |
| 2026-04-23 08:03 | 22.62644 | 94.61204 | 34967 ft | 565 kts | 82° |
| 2026-04-23 08:03 | 22.63658 | 94.69646 | 34966 ft | 566 kts | 82° |
| 2026-04-23 08:04 | 22.64679 | 94.78100 | 34963 ft | 566 kts | 82° |
| 2026-04-23 08:04 | 22.65701 | 94.86547 | 34962 ft | 566 kts | 82° |
| 2026-04-23 08:05 | 22.66719 | 94.94989 | 34962 ft | 566 kts | 82° |
| 2026-04-23 08:05 | 22.67733 | 95.03444 | 34960 ft | 566 kts | 82° |
| 2026-04-23 08:06 | 22.68743 | 95.11904 | 34956 ft | 566 kts | 82° |
| 2026-04-23 08:06 | 22.69747 | 95.20361 | 34959 ft | 566 kts | 82° |
| 2026-04-23 08:07 | 22.70751 | 95.28843 | 34961 ft | 570 kts | 82° |
| 2026-04-23 08:07 | 22.71754 | 95.37363 | 34958 ft | 570 kts | 81° |
| 2026-04-23 08:08 | 22.72753 | 95.45893 | 34957 ft | 571 kts | 82° |
| 2026-04-23 08:08 | 22.73731 | 95.54423 | 34951 ft | 571 kts | 82° |
| 2026-04-23 08:09 | 22.74709 | 95.62958 | 34951 ft | 571 kts | 82° |
| 2026-04-23 08:09 | 22.75686 | 95.71430 | 34943 ft | 571 kts | 82° |
| 2026-04-23 08:10 | 22.76674 | 95.80019 | 34948 ft | 571 kts | 82° |
| 2026-04-23 08:10 | 22.78132 | 95.92767 | 34947 ft | 571 kts | 82° |
| 2026-04-23 08:11 | 22.79100 | 96.01296 | 34953 ft | 571 kts | 82° |
| 2026-04-23 08:11 | 22.80066 | 96.09839 | 34969 ft | 571 kts | 82° |
| 2026-04-23 08:12 | 22.81025 | 96.18366 | 34970 ft | 570 kts | 82° |
| 2026-04-23 08:12 | 22.81980 | 96.26896 | 34994 ft | 571 kts | 82° |
| 2026-04-23 08:13 | 22.82930 | 96.35429 | 34988 ft | 570 kts | 82° |
| 2026-04-23 08:13 | 22.83860 | 96.43962 | 35000 ft | 570 kts | 82° |
| 2026-04-23 08:14 | 22.84789 | 96.52503 | 34991 ft | 570 kts | 82° |
| 2026-04-23 08:14 | 22.85718 | 96.60993 | 34998 ft | 570 kts | 82° |
| 2026-04-23 08:15 | 22.86652 | 96.69536 | 35006 ft | 570 kts | 82° |
| 2026-04-23 08:15 | 22.87580 | 96.78074 | 35006 ft | 570 kts | 82° |
| 2026-04-23 08:16 | 22.88504 | 96.86620 | 35007 ft | 571 kts | 81° |
| 2026-04-23 08:16 | 22.89425 | 96.95183 | 35009 ft | 571 kts | 82° |
| 2026-04-23 08:17 | 22.90339 | 97.03729 | 35000 ft | 569 kts | 82° |
| 2026-04-23 08:17 | 22.91247 | 97.12267 | 35005 ft | 571 kts | 82° |
| 2026-04-23 08:18 | 22.92146 | 97.20760 | 34991 ft | 570 kts | 82° |
| 2026-04-23 08:18 | 22.93040 | 97.29309 | 34990 ft | 570 kts | 82° |
| 2026-04-23 08:19 | 22.93921 | 97.37881 | 35001 ft | 574 kts | 82° |
| 2026-04-23 08:19 | 22.94812 | 97.46495 | 34985 ft | 575 kts | 82° |
| 2026-04-23 08:20 | 22.95705 | 97.55114 | 34988 ft | 575 kts | 82° |
| 2026-04-23 08:20 | 22.96594 | 97.63726 | 34971 ft | 574 kts | 82° |
| 2026-04-23 08:21 | 22.97539 | 97.72320 | 34971 ft | 572 kts | 77° |
| 2026-04-23 08:21 | 22.99715 | 97.80559 | 34965 ft | 566 kts | 65° |
| 2026-04-23 08:22 | 23.02615 | 97.88501 | 34964 ft | 566 kts | 64° |
| 2026-04-23 08:22 | 23.05496 | 97.96459 | 34979 ft | 567 kts | 65° |
| 2026-04-23 08:23 | 23.08258 | 98.04478 | 34985 ft | 567 kts | 66° |
| 2026-04-23 08:23 | 23.10977 | 98.12529 | 34982 ft | 567 kts | 66° |
| 2026-04-23 08:24 | 23.13676 | 98.20528 | 34983 ft | 567 kts | 66° |
| 2026-04-23 08:24 | 23.16393 | 98.28569 | 34971 ft | 566 kts | 66° |
| 2026-04-23 08:25 | 23.19108 | 98.36609 | 34987 ft | 568 kts | 66° |
| 2026-04-23 08:25 | 23.21828 | 98.44680 | 34986 ft | 570 kts | 65° |
| 2026-04-23 08:26 | 23.24551 | 98.52773 | 34974 ft | 571 kts | 66° |
| 2026-04-23 08:26 | 23.27260 | 98.60876 | 34976 ft | 570 kts | 66° |
| 2026-04-23 08:27 | 23.29959 | 98.68988 | 34971 ft | 570 kts | 66° |
| 2026-04-23 08:27 | 23.32663 | 98.77101 | 34972 ft | 569 kts | 66° |
| 2026-04-23 08:28 | 23.35366 | 98.85203 | 34975 ft | 570 kts | 66° |
| 2026-04-23 08:28 | 23.38044 | 98.93326 | 34980 ft | 570 kts | 67° |
| 2026-04-23 08:29 | 23.40592 | 99.01451 | 34989 ft | 571 kts | 68° |
| 2026-04-23 08:29 | 23.43122 | 99.09645 | 34997 ft | 571 kts | 68° |
| 2026-04-23 08:30 | 23.45657 | 99.17839 | 34999 ft | 570 kts | 68° |
| 2026-04-23 08:30 | 23.48195 | 99.26026 | 35027 ft | 572 kts | 67° |
| 2026-04-23 08:31 | 23.50740 | 99.34249 | 35010 ft | 572 kts | 68° |
| 2026-04-23 08:31 | 23.53702 | 99.42247 | 35012 ft | 567 kts | 57° |
| 2026-04-23 08:32 | 23.57550 | 99.49710 | 35014 ft | 564 kts | 53° |
| 2026-04-23 08:32 | 23.61554 | 99.57063 | 35013 ft | 564 kts | 54° |
| 2026-04-23 08:33 | 23.65474 | 99.64477 | 35020 ft | 564 kts | 54° |
| 2026-04-23 08:33 | 23.69337 | 99.71936 | 35027 ft | 564 kts | 55° |
| 2026-04-23 08:34 | 23.73185 | 99.79395 | 35024 ft | 565 kts | 54° |
| 2026-04-23 08:34 | 23.77030 | 99.86848 | 35038 ft | 564 kts | 54° |
| 2026-04-23 08:35 | 23.80871 | 99.94295 | 35032 ft | 568 kts | 54° |
| 2026-04-23 08:35 | 23.84763 | 100.01857 | 35023 ft | 569 kts | 54° |
| 2026-04-23 08:36 | 23.88604 | 100.09333 | 35028 ft | 567 kts | 54° |
| 2026-04-23 08:36 | 23.92497 | 100.16916 | 35016 ft | 568 kts | 55° |
| 2026-04-23 08:37 | 23.96322 | 100.24414 | 35028 ft | 568 kts | 55° |
| 2026-04-23 08:37 | 24.00163 | 100.31950 | 35016 ft | 566 kts | 54° |
| 2026-04-23 08:38 | 24.04004 | 100.39475 | 35035 ft | 567 kts | 54° |
| 2026-04-23 08:38 | 24.07874 | 100.47052 | 35014 ft | 572 kts | 54° |
| 2026-04-23 08:39 | 24.11096 | 100.53376 | 35015 ft | 572 kts | 54° |
| 2026-04-23 08:39 | 24.14940 | 100.61000 | 35012 ft | 572 kts | 55° |
| 2026-04-23 08:40 | 24.18771 | 100.68649 | 35016 ft | 574 kts | 55° |
| 2026-04-23 08:40 | 24.22605 | 100.76317 | 35015 ft | 573 kts | 55° |
| 2026-04-23 08:41 | 24.26431 | 100.83965 | 35021 ft | 572 kts | 55° |
| 2026-04-23 08:41 | 24.30252 | 100.91609 | 35029 ft | 572 kts | 55° |
| 2026-04-23 08:42 | 24.34079 | 100.99276 | 35039 ft | 574 kts | 55° |
| 2026-04-23 08:42 | 24.37907 | 101.06963 | 35038 ft | 575 kts | 55° |
| 2026-04-23 08:43 | 24.41736 | 101.14670 | 35038 ft | 575 kts | 54° |
| 2026-04-23 08:43 | 24.45560 | 101.22373 | 35038 ft | 575 kts | 55° |
| 2026-04-23 08:44 | 24.49379 | 101.30082 | 35044 ft | 575 kts | 55° |
| 2026-04-23 08:44 | 24.53191 | 101.37800 | 35080 ft | 576 kts | 55° |
| 2026-04-23 08:45 | 24.56995 | 101.45536 | 35087 ft | 575 kts | 55° |
| 2026-04-23 08:45 | 24.60806 | 101.53281 | 35074 ft | 576 kts | 55° |
| 2026-04-23 08:46 | 24.64599 | 101.61062 | 35105 ft | 578 kts | 56° |
| 2026-04-23 08:46 | 24.68356 | 101.68880 | 35100 ft | 579 kts | 56° |
| 2026-04-23 08:47 | 24.72110 | 101.76711 | 35113 ft | 580 kts | 56° |
| 2026-04-23 08:47 | 24.75841 | 101.84494 | 35117 ft | 579 kts | 56° |
| 2026-04-23 08:48 | 24.79598 | 101.92339 | 35144 ft | 579 kts | 56° |
| 2026-04-23 08:48 | 24.83349 | 102.00182 | 35138 ft | 579 kts | 57° |
| 2026-04-23 08:49 | 24.87092 | 102.08023 | 35163 ft | 579 kts | 57° |
| 2026-04-23 08:49 | 24.90837 | 102.15885 | 35166 ft | 580 kts | 56° |
| 2026-04-23 08:50 | 24.94581 | 102.23754 | 35186 ft | 579 kts | 56° |
| 2026-04-23 08:50 | 24.98315 | 102.31619 | 35187 ft | 579 kts | 56° |
| 2026-04-23 08:51 | 25.02038 | 102.39489 | 35211 ft | 579 kts | 57° |
| 2026-04-23 08:51 | 25.05752 | 102.47379 | 35211 ft | 579 kts | 56° |
| 2026-04-23 08:52 | 25.10080 | 102.54721 | 35230 ft | 566 kts | 43° |
| 2026-04-23 08:52 | 25.15199 | 102.61282 | 35246 ft | 565 kts | 39° |
| 2026-04-23 08:53 | 25.20423 | 102.67776 | 35261 ft | 566 kts | 40° |
| 2026-04-23 08:53 | 25.25554 | 102.74372 | 35261 ft | 566 kts | 41° |
| 2026-04-23 08:54 | 25.30640 | 102.81032 | 35270 ft | 568 kts | 42° |
| 2026-04-23 08:54 | 25.35727 | 102.87710 | 35248 ft | 569 kts | 42° |
| 2026-04-23 08:55 | 25.41054 | 102.93983 | 35260 ft | 556 kts | 33° |
| 2026-04-23 08:55 | 25.46950 | 102.99435 | 35243 ft | 550 kts | 29° |
| 2026-04-23 08:56 | 25.52938 | 103.04723 | 35247 ft | 551 kts | 29° |
| 2026-04-23 08:56 | 25.58876 | 103.10098 | 35262 ft | 552 kts | 30° |
| 2026-04-23 08:57 | 25.64782 | 103.15536 | 35238 ft | 552 kts | 31° |
| 2026-04-23 08:57 | 25.70687 | 103.20994 | 35270 ft | 553 kts | 31° |
| 2026-04-23 08:58 | 25.82845 | 103.32238 | 35118 ft | 552 kts | 31° |
| 2026-04-23 08:59 | 25.88731 | 103.37687 | 35137 ft | 550 kts | 31° |
| 2026-04-23 08:59 | 25.94619 | 103.43144 | 35170 ft | 552 kts | 32° |
| 2026-04-23 09:00 | 26.00538 | 103.48635 | 35094 ft | 556 kts | 32° |
| 2026-04-23 09:00 | 26.06468 | 103.54160 | 35115 ft | 556 kts | 32° |
| 2026-04-23 09:01 | 26.12402 | 103.59701 | 35067 ft | 557 kts | 32° |
| 2026-04-23 09:01 | 26.18335 | 103.65238 | 35093 ft | 556 kts | 32° |
| 2026-04-23 09:02 | 26.24283 | 103.70764 | 35090 ft | 556 kts | 32° |
| 2026-04-23 09:02 | 26.30235 | 103.76290 | 35077 ft | 556 kts | 32° |
| 2026-04-23 09:03 | 26.36180 | 103.81816 | 35058 ft | 556 kts | 32° |
| 2026-04-23 09:03 | 26.42127 | 103.87351 | 35059 ft | 558 kts | 32° |
| 2026-04-23 09:04 | 26.48096 | 103.92917 | 35035 ft | 560 kts | 33° |
| 2026-04-23 09:04 | 26.54074 | 103.98510 | 35044 ft | 559 kts | 31° |
| 2026-04-23 09:05 | 26.60038 | 104.04086 | 35050 ft | 559 kts | 32° |
| 2026-04-23 09:05 | 26.65961 | 104.09632 | 35035 ft | 559 kts | 32° |
| 2026-04-23 09:06 | 26.71918 | 104.15219 | 35030 ft | 559 kts | 32° |
| 2026-04-23 09:06 | 26.77867 | 104.20807 | 35039 ft | 555 kts | 32° |
| 2026-04-23 09:07 | 26.83754 | 104.26356 | 35013 ft | 554 kts | 32° |
| 2026-04-23 09:07 | 26.89650 | 104.31941 | 35007 ft | 556 kts | 33° |
| 2026-04-23 09:08 | 26.94453 | 104.36839 | 35002 ft | 559 kts | 36° |
| 2026-04-23 09:08 | 27.00065 | 104.42887 | 34992 ft | 559 kts | 37° |
| 2026-04-23 09:09 | 27.06540 | 104.49903 | 35004 ft | 553 kts | 37° |
| 2026-04-23 09:09 | 27.11189 | 104.54901 | 34978 ft | 551 kts | 37° |
| 2026-04-23 09:10 | 27.19499 | 104.63833 | 34989 ft | 552 kts | 37° |
| 2026-04-23 09:11 | 27.24994 | 104.69760 | 34965 ft | 551 kts | 37° |
| 2026-04-23 09:11 | 27.30499 | 104.75756 | 34985 ft | 550 kts | 38° |
| 2026-04-23 09:12 | 27.35962 | 104.81725 | 34957 ft | 547 kts | 38° |
| 2026-04-23 09:12 | 27.41415 | 104.87678 | 34959 ft | 546 kts | 38° |
| 2026-04-23 09:13 | 27.46858 | 104.93627 | 34949 ft | 546 kts | 37° |
| 2026-04-23 09:13 | 27.52324 | 104.99606 | 34949 ft | 549 kts | 38° |
| 2026-04-23 09:14 | 27.57794 | 105.05605 | 34947 ft | 549 kts | 38° |
| 2026-04-23 09:14 | 27.63087 | 105.11847 | 34955 ft | 556 kts | 47° |
| 2026-04-23 09:15 | 27.66914 | 105.19495 | 34954 ft | 567 kts | 66° |
| 2026-04-23 09:15 | 27.69271 | 105.28005 | 34956 ft | 570 kts | 72° |
| 2026-04-23 09:16 | 27.71653 | 105.36566 | 34979 ft | 573 kts | 69° |
| 2026-04-23 09:16 | 27.74355 | 105.44965 | 34976 ft | 572 kts | 67° |
| 2026-04-23 09:17 | 27.77191 | 105.53360 | 34996 ft | 573 kts | 66° |
| 2026-04-23 09:17 | 27.80003 | 105.61735 | 34977 ft | 567 kts | 66° |
| 2026-04-23 09:18 | 27.82775 | 105.70080 | 35008 ft | 569 kts | 67° |
| 2026-04-23 09:18 | 27.85550 | 105.78442 | 34666 ft | 566 kts | 67° |
| 2026-04-23 09:18 | 27.86930 | 105.82603 | 34194 ft | 565 kts | 67° |
| 2026-04-23 09:19 | 27.88309 | 105.86759 | 33723 ft | 565 kts | 66° |
| 2026-04-23 09:19 | 27.89685 | 105.90913 | 33185 ft | 563 kts | 67° |
| 2026-04-23 09:19 | 27.91054 | 105.95048 | 32701 ft | 561 kts | 67° |
| 2026-04-23 09:19 | 27.92415 | 105.99167 | 32185 ft | 558 kts | 67° |
| 2026-04-23 09:20 | 27.93772 | 106.03275 | 31681 ft | 558 kts | 67° |
| 2026-04-23 09:20 | 27.95125 | 106.07378 | 31199 ft | 556 kts | 67° |
| 2026-04-23 09:20 | 27.96472 | 106.11468 | 30720 ft | 553 kts | 67° |
| 2026-04-23 09:20 | 27.97816 | 106.15535 | 30249 ft | 550 kts | 67° |
| 2026-04-23 09:21 | 27.99143 | 106.19523 | 29794 ft | 548 kts | 67° |
| 2026-04-23 09:21 | 28.00488 | 106.23551 | 29257 ft | 548 kts | 67° |
| 2026-04-23 09:21 | 28.01838 | 106.27582 | 28715 ft | 548 kts | 67° |
| 2026-04-23 09:21 | 28.03183 | 106.31603 | 28169 ft | 545 kts | 67° |
| 2026-04-23 09:22 | 28.04523 | 106.35610 | 27670 ft | 544 kts | 67° |
| 2026-04-23 09:22 | 28.05863 | 106.39623 | 27162 ft | 544 kts | 67° |
| 2026-04-23 09:22 | 28.07198 | 106.43625 | 26667 ft | 541 kts | 67° |
| 2026-04-23 09:22 | 28.08518 | 106.47592 | 26175 ft | 535 kts | 67° |
| 2026-04-23 09:23 | 28.09820 | 106.51510 | 25708 ft | 528 kts | 66° |
| 2026-04-23 09:23 | 28.11388 | 106.55216 | 25221 ft | 517 kts | 55° |
| 2026-04-23 09:23 | 28.13510 | 106.58425 | 24750 ft | 503 kts | 42° |
| 2026-04-23 09:23 | 28.16076 | 106.61026 | 24310 ft | 491 kts | 32° |
| 2026-04-23 09:24 | 28.18819 | 106.63275 | 23853 ft | 483 kts | 30° |
| 2026-04-23 09:24 | 28.21552 | 106.65471 | 23388 ft | 478 kts | 31° |
| 2026-04-23 09:24 | 28.24202 | 106.67719 | 22852 ft | 473 kts | 33° |
| 2026-04-23 09:24 | 28.26825 | 106.69912 | 22339 ft | 464 kts | 30° |
| 2026-04-23 09:25 | 28.29550 | 106.71806 | 21821 ft | 456 kts | 22° |
| 2026-04-23 09:25 | 28.32424 | 106.73193 | 21311 ft | 444 kts | 13° |
| 2026-04-23 09:25 | 28.35390 | 106.73995 | 20816 ft | 433 kts | 4° |
| 2026-04-23 09:25 | 28.38356 | 106.74221 | 20361 ft | 423 kts | 354° |
| 2026-04-23 09:26 | 28.41262 | 106.73981 | 20004 ft | 416 kts | 349° |
| 2026-04-23 09:26 | 28.44123 | 106.73529 | 19643 ft | 413 kts | 348° |
| 2026-04-23 09:26 | 28.46948 | 106.73027 | 19287 ft | 410 kts | 348° |
| 2026-04-23 09:26 | 28.49755 | 106.72535 | 18949 ft | 407 kts | 348° |
| 2026-04-23 09:27 | 28.52546 | 106.72069 | 18600 ft | 404 kts | 348° |
| 2026-04-23 09:27 | 28.55325 | 106.71625 | 18251 ft | 402 kts | 349° |
| 2026-04-23 09:27 | 28.58085 | 106.71199 | 17866 ft | 399 kts | 349° |
| 2026-04-23 09:27 | 28.60788 | 106.70789 | 17484 ft | 396 kts | 349° |
| 2026-04-23 09:28 | 28.63512 | 106.70380 | 17100 ft | 393 kts | 349° |
| 2026-04-23 09:28 | 28.66215 | 106.69975 | 16711 ft | 391 kts | 349° |
| 2026-04-23 09:28 | 28.68902 | 106.69573 | 16333 ft | 388 kts | 350° |
| 2026-04-23 09:28 | 28.71587 | 106.69249 | 15909 ft | 388 kts | 353° |
| 2026-04-23 09:29 | 28.74287 | 106.69132 | 15471 ft | 388 kts | 356° |
| 2026-04-23 09:29 | 28.76979 | 106.69114 | 15046 ft | 387 kts | 358° |
| 2026-04-23 09:29 | 28.79667 | 106.69127 | 14620 ft | 386 kts | 358° |
| 2026-04-23 09:29 | 28.82348 | 106.69143 | 14197 ft | 384 kts | 358° |
| 2026-04-23 09:30 | 28.85019 | 106.69155 | 13785 ft | 383 kts | 358° |
| 2026-04-23 09:30 | 28.87679 | 106.69161 | 13335 ft | 382 kts | 358° |
| 2026-04-23 09:30 | 28.90332 | 106.69162 | 12866 ft | 379 kts | 358° |
| 2026-04-23 09:30 | 28.92963 | 106.69161 | 12415 ft | 377 kts | 358° |
| 2026-04-23 09:31 | 28.95579 | 106.69158 | 11970 ft | 375 kts | 358° |
| 2026-04-23 09:31 | 28.98181 | 106.69155 | 11510 ft | 373 kts | 359° |
| 2026-04-23 09:31 | 29.00722 | 106.69153 | 11323 ft | 355 kts | 358° |
| 2026-04-23 09:31 | 29.03109 | 106.68976 | 11191 ft | 334 kts | 348° |
| 2026-04-23 09:32 | 29.05280 | 106.68279 | 11060 ft | 316 kts | 339° |
| 2026-04-23 09:32 | 29.07283 | 106.67402 | 10942 ft | 301 kts | 337° |
| 2026-04-23 09:32 | 29.09195 | 106.66506 | 10613 ft | 295 kts | 336° |
| 2026-04-23 09:32 | 29.11079 | 106.65616 | 10240 ft | 292 kts | 337° |
| 2026-04-23 09:33 | 29.12966 | 106.64730 | 9859 ft | 293 kts | 338° |
| 2026-04-23 09:33 | 29.14811 | 106.63869 | 9432 ft | 293 kts | 338° |
| 2026-04-23 09:33 | 29.16703 | 106.62993 | 8964 ft | 293 kts | 338° |
| 2026-04-23 09:33 | 29.18588 | 106.62123 | 8512 ft | 292 kts | 339° |
| 2026-04-23 09:34 | 29.20468 | 106.61256 | 8060 ft | 291 kts | 339° |
| 2026-04-23 09:34 | 29.22334 | 106.60398 | 7837 ft | 283 kts | 339° |
| 2026-04-23 09:34 | 29.24128 | 106.59572 | 7690 ft | 271 kts | 339° |
| 2026-04-23 09:34 | 29.25809 | 106.58799 | 7573 ft | 250 kts | 339° |
| 2026-04-23 09:35 | 29.27356 | 106.58086 | 7436 ft | 228 kts | 339° |
| 2026-04-23 09:35 | 29.28757 | 106.57441 | 7222 ft | 209 kts | 339° |
| 2026-04-23 09:35 | 29.30102 | 106.56824 | 6877 ft | 206 kts | 339° |
| 2026-04-23 09:35 | 29.31429 | 106.56214 | 6502 ft | 205 kts | 339° |
| 2026-04-23 09:36 | 29.32737 | 106.55614 | 6109 ft | 205 kts | 340° |
| 2026-04-23 09:36 | 29.34059 | 106.55007 | 5688 ft | 204 kts | 339° |
| 2026-04-23 09:36 | 29.35373 | 106.54402 | 5298 ft | 202 kts | 339° |
| 2026-04-23 09:36 | 29.36673 | 106.53804 | 4929 ft | 201 kts | 339° |
| 2026-04-23 09:37 | 29.37977 | 106.53223 | 4578 ft | 200 kts | 344° |
| 2026-04-23 09:37 | 29.39345 | 106.53108 | 4181 ft | 197 kts | 13° |
| 2026-04-23 09:37 | 29.40654 | 106.53473 | 3948 ft | 191 kts | 18° |
| 2026-04-23 09:37 | 29.41941 | 106.53887 | 3950 ft | 193 kts | 17° |
| 2026-04-23 09:38 | 29.43234 | 106.54309 | 3936 ft | 192 kts | 19° |
| 2026-04-23 09:38 | 29.44522 | 106.54735 | 3939 ft | 192 kts | 19° |
| 2026-04-23 09:38 | 29.45805 | 106.55164 | 3925 ft | 192 kts | 18° |
| 2026-04-23 09:38 | 29.47092 | 106.55598 | 3936 ft | 193 kts | 19° |
| 2026-04-23 09:39 | 29.48383 | 106.56035 | 3935 ft | 193 kts | 19° |
| 2026-04-23 09:39 | 29.49670 | 106.56472 | 3914 ft | 193 kts | 19° |
| 2026-04-23 09:39 | 29.50958 | 106.56911 | 3939 ft | 193 kts | 20° |
| 2026-04-23 09:39 | 29.52241 | 106.57348 | 3934 ft | 192 kts | 19° |
| 2026-04-23 09:40 | 29.53521 | 106.57782 | 3936 ft | 192 kts | 19° |
| 2026-04-23 09:40 | 29.54805 | 106.58219 | 3932 ft | 193 kts | 19° |
| 2026-04-23 09:40 | 29.56093 | 106.58658 | 3939 ft | 193 kts | 19° |
| 2026-04-23 09:40 | 29.57377 | 106.59099 | 3938 ft | 192 kts | 18° |
| 2026-04-23 09:41 | 29.58672 | 106.59544 | 3755 ft | 195 kts | 18° |
| 2026-04-23 09:41 | 29.59959 | 106.59988 | 3504 ft | 190 kts | 18° |
| 2026-04-23 09:41 | 29.61227 | 106.60427 | 3238 ft | 191 kts | 18° |
| 2026-04-23 09:41 | 29.62496 | 106.60865 | 3008 ft | 188 kts | 20° |
| 2026-04-23 09:42 | 29.63666 | 106.61269 | 2724 ft | 172 kts | 19° |
| 2026-04-23 09:42 | 29.64805 | 106.61666 | 2528 ft | 171 kts | 19° |
| 2026-04-23 09:42 | 29.65938 | 106.62061 | 2353 ft | 169 kts | 20° |
| 2026-04-23 09:42 | 29.67061 | 106.62455 | 2103 ft | 169 kts | 18° |
| 2026-04-23 09:43 | 29.68181 | 106.62842 | 1877 ft | 168 kts | 20° |
| 2026-04-23 09:43 | 29.69291 | 106.63246 | 1677 ft | 166 kts | 19° |
| 2026-04-23 09:43 | 29.70391 | 106.63620 | 1431 ft | 165 kts | 19° |
| 2026-04-23 09:43 | 29.71428 | 106.63985 | 1365 ft | 140 kts | 18° |
| 2026-04-23 09:44 | 29.72236 | 106.64263 | 1367 ft | 89 kts | 17° |
| 2026-04-23 09:44 | 29.72609 | 106.64406 | 1367 ft | 30 kts | 28° |
| 2026-04-23 09:44 | 29.72722 | 106.64506 | 1366 ft | 17 kts | 43° |
| 2026-04-23 09:44 | 29.72776 | 106.64570 | 1366 ft | 10 kts | 47° |
| 2026-04-23 09:45 | 29.72837 | 106.64645 | 1366 ft | 15 kts | 47° |
| 2026-04-23 09:45 | 29.72927 | 106.64706 | 1365 ft | 16 kts | 19° |
| 2026-04-23 09:45 | 29.73039 | 106.64745 | 1365 ft | 19 kts | 17° |
| 2026-04-23 09:45 | 29.73175 | 106.64792 | 1365 ft | 22 kts | 17° |
| 2026-04-23 09:46 | 29.73330 | 106.64856 | 1364 ft | 25 kts | 25° |
| 2026-04-23 09:46 | 29.73491 | 106.64946 | 1365 ft | 24 kts | 25° |
| 2026-04-23 09:46 | 29.73582 | 106.65013 | 1362 ft | 14 kts | 51° |
| 2026-04-23 09:46 | 29.73595 | 106.65062 | 1363 ft | 3 kts | 107° |
| 2026-04-23 09:47 | 29.73578 | 106.65112 | 1362 ft | 10 kts | 115° |
| 2026-04-23 09:47 | 29.73549 | 106.65203 | 1362 ft | 15 kts | 108° |
| 2026-04-23 09:47 | 29.73520 | 106.65324 | 1362 ft | 15 kts | 105° |
| 2026-04-23 09:47 | 29.73513 | 106.65404 | 1360 ft | 4 kts | 74° |
| 2026-04-23 09:48 | 29.73535 | 106.65435 | 1361 ft | 7 kts | 40° |
| 2026-04-23 09:48 | 29.73594 | 106.65476 | 1362 ft | 12 kts | 27° |
| 2026-04-23 09:48 | 29.73688 | 106.65527 | 1359 ft | 18 kts | 25° |
| 2026-04-23 09:48 | 29.73805 | 106.65598 | 1359 ft | 17 kts | 44° |
| 2026-04-23 09:49 | 29.73893 | 106.65671 | 1356 ft | 13 kts | 25° |
| 2026-04-23 09:49 | 29.73922 | 106.65689 | 1356 ft | 2 kts | 47° |
| 2026-04-23 09:49 | 29.73929 | 106.65708 | 1356 ft | 2 kts | 76° |
| 2026-04-23 09:49 | 29.73922 | 106.65736 | 1355 ft | 6 kts | 114° |
| 2026-04-23 09:50 | 29.73912 | 106.65770 | 1351 ft | 0 kts | 106° |
| 2026-04-23 09:50 | 29.73911 | 106.65774 | 1351 ft | 2 kts | 107° |
| 2026-04-23 09:50 | 29.73909 | 106.65783 | 1352 ft | 0 kts | 107° |